TAF Text Data
IDs:
Format:
Raw Decoded Include METAR

Data at: 1312 UTC 10 Jul 2020

KTCL 101140Z 1012/1112 00000KT 6SM BR SCT035
  TEMPO 1012/1014 5SM BR
  FM101600 29010KT P6SM SCT045
  FM110000 33009KT P6SM SKC
  FM110400 VRB03KT P6SM SKC